Микряково

Карта отелей и гостиниц, располагающихся рядом с аэропортом Микряково :

Микряково Марий Эл 56° 12' 43.9812" N, 46° 14' 0.6" E
Код аэродрома ИКАО
ZA89
Код аэродрома RU
ЗА89
Координаты
N56.21222° E046.23350°
Превышение над уровнем моря
155
Основная полоса
01/19
Курс магнитный
004,7/184,7
Длина основной ВПП
450
Ширина основной ВПП
18
Покрытие основной ВПП
Твёрдое (асфальт)
Освещение ВПП
Нет
Тип: 
Аэродром
Класс аэродрома: 
Принадлежность: 
ГА
Статус: 
Недействующий
Сайт: 
E-mail аэродрома: 
Страна: 
Россия
Регион: 
Марий Эл
Город: 
Дополнительная информация: 
Площадка АХР.

Найти трансфер

С помощью этой формы Вы можете найти трансфер из аэропорта Микряково в город, аэропорт или вокзал:

Карта места

Javascript is required to view this map.

Погода в аэропортах:

Авиационная погода в Симферополе

Погода METAR: 
URFF 170530Z 03009MPS 1700 R01/1800U SN DRSN BKN006 OVC023 M05/M05 Q1007 R01/421595 NOSIG
Время наблюдения
2021-01-17T05:30:00Z
Температура C
-5.0
Точка росы
-5.0
Направление ветра
30
Скорость ветра (узлы)
17
Метео видимость
1.06
Явления погоды
DRSN SN
Условия полета
IFR
Аэропорт подробнее: 

Авиационная погода в Игнатьево

Регион: 
Погода METAR: 
UHBB 170530Z 03002MPS 9999 -SN SCT033 M26/M29 Q1012 R36/420360 NOSIG RMK QFE741/0989
Время наблюдения
2021-01-17T05:30:00Z
Температура C
-26.0
Точка росы
-29.0
Направление ветра
30
Скорость ветра (узлы)
4
Метео видимость
6.21
Явления погоды
-SN
Условия полета
VFR
Аэропорт подробнее: 

Авиационная погода в Ургенче

Регион: 
Погода METAR: 
UTNU 170530Z 07010KT 4900 BR NSC M01/M03 Q1016 R31/CLRD70 NOSIG
Время наблюдения
2021-01-17T05:30:00Z
Температура C
-1.0
Точка росы
-3.0
Направление ветра
70
Скорость ветра (узлы)
10
Метео видимость
3.04
Явления погоды
BR
Условия полета
MVFR

Авиационная погода в Махачкале

Регион: 
Погода METAR: 
URML 170530Z 00000MPS 8000 -DZ OVC004 05/05 Q1008 R32/290260 NOSIG RMK QBB130 MT OBSC QFE755/1007
Время наблюдения
2021-01-17T05:30:00Z
Температура C
5.0
Точка росы
5.0
Направление ветра
0
Скорость ветра (узлы)
0
Метео видимость
4.97
Явления погоды
-DZ
Условия полета
LIFR
Аэропорт подробнее: